Time;durP1;ratioP1;P1;durP2;ratioP2;P2;SDS_P1;SDS_P2;PMS_P1;PMS_P2;Temp;Humidity;BMP_temperature;BMP_pressure;BME280_temperature;BME280_humidity;BME280_pressure;Samples;Min_cycle;Max_cycle;Signal;HPM_P1;HPM_P2
2021/08/25 00:02:05;;;;;;;;;;;;;;;21.94;76.50;102656.09;7281846;19;152452;-49
2021/08/25 00:04:32;;;;;;;;;;;;;;;21.94;76.20;102659.75;7281684;19;153427;-48
2021/08/25 00:06:59;;;;;;;;;;;;;;;21.94;76.27;102656.09;7284136;19;153714;-49
2021/08/25 00:09:26;;;;;;;;;;;;;;;21.94;76.59;102656.94;7283574;19;152123;-49
2021/08/25 00:11:52;;;;;;;;;;;;;;;21.94;76.49;102647.66;7285618;19;152749;-49
2021/08/25 00:14:19;;;;;;;;;;;;;;;21.96;76.74;102643.44;7288440;19;153223;-49
2021/08/25 00:16:46;;;;;;;;;;;;;;;21.97;76.71;102641.47;7285275;19;152848;-50
2021/08/25 00:19:13;;;;;;;;;;;;;;;21.97;76.99;102647.09;7273657;19;153907;-49
2021/08/25 00:21:40;;;;;;;;;;;;;;;21.96;76.98;102642.59;7281092;19;151927;-49
2021/08/25 00:24:07;;;;;;;;;;;;;;;21.97;77.01;102644.28;7276695;19;153870;-49
2021/08/25 00:26:34;;;;;;;;;;;;;;;21.98;76.94;102644.03;7283472;19;154007;-49
2021/08/25 00:29:01;;;;;;;;;;;;;;;21.98;77.16;102643.16;7283240;19;153569;-49
2021/08/25 00:31:33;;;;;;;;;;;;;;;21.99;77.39;102644.84;7285667;19;153081;-49
2021/08/25 00:34:00;;;;;;;;;;;;;;;21.99;77.26;102642.03;7288831;19;154276;-49
2021/08/25 00:36:27;;;;;;;;;;;;;;;21.99;77.34;102631.63;7283496;19;152033;-49
2021/08/25 00:38:54;;;;;;;;;;;;;;;21.99;77.21;102644.84;7281275;19;152988;-49
2021/08/25 00:41:22;;;;;;;;;;;;;;;21.99;77.09;102623.16;7284131;19;152218;-49
2021/08/25 00:43:54;;;;;;;;;;;;;;;21.99;77.56;102625.97;7283128;19;153539;-49
2021/08/25 00:46:30;;;;;;;;;;;;;;;22.02;77.75;102621.78;7282077;19;152612;-49
2021/08/25 00:49:01;;;;;;;;;;;;;;;22.02;77.75;102621.78;7280737;19;151965;-49
2021/08/25 00:51:35;;;;;;;;;;;;;;;22.02;77.51;102618.97;7282969;19;152252;-49
2021/08/25 00:54:07;;;;;;;;;;;;;;;22.01;77.70;102612.50;7282038;19;153839;-49
2021/08/25 00:56:37;;;;;;;;;;;;;;;22.03;77.80;102615.03;7289046;19;151867;-49
2021/08/25 00:59:05;;;;;;;;;;;;;;;22.02;77.58;102613.34;7278881;19;153281;-49
2021/08/25 01:01:33;;;;;;;;;;;;;;;22.02;77.79;102619.81;7282544;19;151810;-48
2021/08/25 01:04:05;;;;;;;;;;;;;;;22.03;77.68;102606.59;7281855;19;151993;-48
2021/08/25 01:06:34;;;;;;;;;;;;;;;22.03;77.55;102613.03;7283743;19;153831;-49
2021/08/25 01:09:03;;;;;;;;;;;;;;;22.02;77.57;102614.19;7280195;19;152118;-49
2021/08/25 01:11:30;;;;;;;;;;;;;;;22.05;77.69;102602.38;7281248;19;153722;-49
2021/08/25 01:13:58;;;;;;;;;;;;;;;22.04;77.56;102597.84;7280462;19;153713;-49
2021/08/25 01:16:25;;;;;;;;;;;;;;;22.05;77.41;102596.75;7278822;19;152445;-49
2021/08/25 01:18:54;;;;;;;;;;;;;;;22.04;77.75;102582.94;7286492;19;153585;-49
2021/08/25 01:21:21;;;;;;;;;;;;;;;22.04;77.52;102580.13;7276216;19;153522;-49
2021/08/25 01:23:48;;;;;;;;;;;;;;;22.04;77.39;102582.94;7280509;19;151873;-49
2021/08/25 01:26:16;;;;;;;;;;;;;;;22.07;77.47;102582.38;7281987;19;153822;-49
2021/08/25 01:28:47;;;;;;;;;;;;;;;22.05;77.88;102571.41;7282428;19;152487;-49
2021/08/25 01:31:15;;;;;;;;;;;;;;;22.05;77.77;102579.00;7286394;19;153699;-49
2021/08/25 01:33:42;;;;;;;;;;;;;;;22.06;77.75;102577.88;7285313;19;153484;-49
2021/08/25 01:36:12;;;;;;;;;;;;;;;22.06;77.77;102577.88;7289180;19;151722;-49
2021/08/25 01:38:43;;;;;;;;;;;;;;;22.05;77.68;102571.41;7285847;19;153676;-49
2021/08/25 01:41:10;;;;;;;;;;;;;;;22.06;77.64;102575.91;7296072;19;153604;-49
2021/08/25 01:43:37;;;;;;;;;;;;;;;22.06;77.78;102573.09;7284451;19;152859;-48
2021/08/25 01:46:04;;;;;;;;;;;;;;;22.06;78.09;102575.06;7288756;19;152968;-49
2021/08/25 01:48:33;;;;;;;;;;;;;;;22.06;77.83;102566.63;7287985;19;154746;-49
2021/08/25 01:51:00;;;;;;;;;;;;;;;22.08;78.15;102569.97;7285219;19;153635;-48
2021/08/25 01:53:27;;;;;;;;;;;;;;;22.08;78.60;102564.34;7284923;19;153452;-49
2021/08/25 01:55:54;;;;;;;;;;;;;;;22.08;78.13;102562.38;7290622;19;153563;-49
2021/08/25 01:58:21;;;;;;;;;;;;;;;22.10;78.07;102553.66;7287912;19;153073;-49
2021/08/25 02:00:48;;;;;;;;;;;;;;;22.09;78.45;102560.41;7284010;19;154380;-49
2021/08/25 02:03:16;;;;;;;;;;;;;;;22.08;78.38;102550.28;7291940;19;152058;-50
2021/08/25 02:05:43;;;;;;;;;;;;;;;22.09;78.60;102560.41;7285835;19;153366;-49
2021/08/25 02:08:11;;;;;;;;;;;;;;;22.09;78.84;102547.19;7286908;19;152281;-49
2021/08/25 02:10:39;;;;;;;;;;;;;;;22.09;78.86;102546.34;7287624;19;157911;-49
2021/08/25 02:13:07;;;;;;;;;;;;;;;22.09;78.60;102549.16;7286737;19;154130;-49
2021/08/25 02:15:34;;;;;;;;;;;;;;;22.09;79.09;102547.19;7285628;19;152167;-49
2021/08/25 02:18:01;;;;;;;;;;;;;;;22.10;79.37;102548.88;7289559;19;153266;-49
2021/08/25 02:20:28;;;;;;;;;;;;;;;22.09;79.30;102537.91;7281327;19;152943;-49
2021/08/25 02:22:55;;;;;;;;;;;;;;;22.08;79.18;102542.69;7283573;19;152010;-48
2021/08/25 02:25:22;;;;;;;;;;;;;;;22.09;79.34;102535.09;7293957;19;153392;-48
2021/08/25 02:27:49;;;;;;;;;;;;;;;22.09;79.45;102530.31;7287351;19;152502;-49
2021/08/25 02:30:16;;;;;;;;;;;;;;;22.10;79.61;102539.59;7288780;19;152717;-49
2021/08/25 02:32:43;;;;;;;;;;;;;;;22.11;79.70;102538.47;7287674;19;153962;-50
2021/08/25 02:35:11;;;;;;;;;;;;;;;22.10;79.67;102542.41;7284070;19;151629;-49
2021/08/25 02:37:38;;;;;;;;;;;;;;;22.10;79.39;102539.59;7286355;19;153259;-49
2021/08/25 02:40:07;;;;;;;;;;;;;;;22.09;79.88;102535.09;7283011;19;154417;-48
2021/08/25 02:42:34;;;;;;;;;;;;;;;22.11;79.36;102535.66;7284328;19;152656;-49
2021/08/25 02:45:02;;;;;;;;;;;;;;;22.10;79.54;102529.19;7289141;19;152809;-49
2021/08/25 02:47:29;;;;;;;;;;;;;;;22.09;79.41;102530.31;7288807;19;151792;-49
2021/08/25 02:49:56;;;;;;;;;;;;;;;22.09;79.68;102527.50;7283698;19;153592;-49
2021/08/25 02:52:23;;;;;;;;;;;;;;;22.09;79.62;102518.19;7280884;19;153033;-49
2021/08/25 02:54:50;;;;;;;;;;;;;;;22.09;80.01;102521.00;7283860;19;152183;-49
2021/08/25 02:57:17;;;;;;;;;;;;;;;22.09;80.07;102518.19;7285190;19;153396;-49
2021/08/25 02:59:44;;;;;;;;;;;;;;;22.09;79.58;102512.56;7280964;19;153252;-49
2021/08/25 03:02:11;;;;;;;;;;;;;;;22.09;79.93;102512.56;7286312;19;151978;-49
2021/08/25 03:04:39;;;;;;;;;;;;;;;22.09;80.01;102512.56;7283647;19;153257;-49
2021/08/25 03:07:06;;;;;;;;;;;;;;;22.09;80.03;102513.41;7290946;19;153835;-49
2021/08/25 03:09:33;;;;;;;;;;;;;;;22.08;79.53;102508.91;7284490;19;151863;-49
2021/08/25 03:12:00;;;;;;;;;;;;;;;22.08;80.06;102503.28;7283330;19;154283;-49
2021/08/25 03:14:27;;;;;;;;;;;;;;;22.09;79.65;102495.69;7284123;19;152493;-49
2021/08/25 03:16:54;;;;;;;;;;;;;;;22.09;79.76;102493.72;7286481;19;152446;-49
2021/08/25 03:19:21;;;;;;;;;;;;;;;22.07;80.00;102486.69;7283777;19;153411;-49
2021/08/25 03:21:48;;;;;;;;;;;;;;;22.09;79.52;102487.22;7283235;19;152422;-49
2021/08/25 03:24:16;;;;;;;;;;;;;;;22.08;79.67;102489.19;7280676;19;152296;-49
2021/08/25 03:26:43;;;;;;;;;;;;;;;22.09;79.76;102487.22;7280471;19;154156;-49
2021/08/25 03:29:10;;;;;;;;;;;;;;;22.10;79.92;102486.97;7290765;19;151601;-48
2021/08/25 03:31:37;;;;;;;;;;;;;;;22.12;80.47;102487.50;7285528;19;154007;-49
2021/08/25 03:34:04;;;;;;;;;;;;;;;22.12;80.38;102481.06;7284634;19;152485;-49
2021/08/25 03:36:32;;;;;;;;;;;;;;;22.10;80.22;102477.66;7284284;19;153932;-49
2021/08/25 03:38:59;;;;;;;;;;;;;;;22.10;80.06;102470.06;7284983;19;153804;-49
2021/08/25 03:41:26;;;;;;;;;;;;;;;22.10;80.09;102477.66;7285116;19;153823;-49
2021/08/25 03:43:53;;;;;;;;;;;;;;;22.11;79.85;102471.75;7282828;19;153241;-50
2021/08/25 03:46:25;;;;;;;;;;;;;;;22.10;80.33;102474.84;7282487;19;152417;-49
2021/08/25 03:48:52;;;;;;;;;;;;;;;22.10;79.85;102467.25;7285229;19;152093;-49
2021/08/25 03:51:19;;;;;;;;;;;;;;;22.10;79.74;102470.06;7287461;19;152660;-49
2021/08/25 03:53:47;;;;;;;;;;;;;;;22.10;79.80;102472.03;7281056;19;154198;-49
2021/08/25 03:56:14;;;;;;;;;;;;;;;22.11;79.97;102468.94;7285269;19;153558;-49
2021/08/25 03:58:41;;;;;;;;;;;;;;;22.12;79.78;102464.16;7281228;19;153546;-49
2021/08/25 04:01:08;;;;;;;;;;;;;;;22.10;79.82;102467.25;7283829;19;151759;-48
2021/08/25 04:03:35;;;;;;;;;;;;;;;22.12;79.97;102464.16;7282813;19;152811;-49
2021/08/25 04:06:03;;;;;;;;;;;;;;;22.10;79.70;102456.00;7284035;19;154210;-49
2021/08/25 04:08:30;;;;;;;;;;;;;;;22.11;80.00;102454.88;7282031;19;152206;-49
2021/08/25 04:10:57;;;;;;;;;;;;;;;22.11;79.66;102449.25;7284991;19;153777;-48
2021/08/25 04:13:24;;;;;;;;;;;;;;;22.11;80.02;102454.88;7287717;19;154700;-49
2021/08/25 04:15:52;;;;;;;;;;;;;;;22.11;79.76;102466.13;7285921;19;152494;-49
2021/08/25 04:18:19;;;;;;;;;;;;;;;22.10;79.84;102458.81;7281516;19;152882;-49
2021/08/25 04:20:46;;;;;;;;;;;;;;;22.11;79.78;102451.22;7285587;19;151923;-49
2021/08/25 04:23:13;;;;;;;;;;;;;;;22.10;79.66;102461.63;7277552;19;152527;-49
2021/08/25 04:25:41;;;;;;;;;;;;;;;22.11;79.73;102456.84;7278186;19;153363;-48
2021/08/25 04:28:09;;;;;;;;;;;;;;;22.10;79.79;102453.19;7285008;19;152048;-49
2021/08/25 04:30:36;;;;;;;;;;;;;;;22.10;79.99;102455.16;7284590;19;152963;-49
2021/08/25 04:33:04;;;;;;;;;;;;;;;22.09;79.86;102456.25;7283315;19;153442;-49
2021/08/25 04:35:31;;;;;;;;;;;;;;;22.10;79.66;102460.78;7293099;19;152068;-48
2021/08/25 04:37:58;;;;;;;;;;;;;;;22.09;80.00;102459.94;7279064;19;153468;-49
2021/08/25 04:40:25;;;;;;;;;;;;;;;22.10;79.74;102461.63;7285379;19;152329;-49
2021/08/25 04:42:52;;;;;;;;;;;;;;;22.09;79.64;102468.38;7282341;19;153693;-49
2021/08/25 04:45:19;;;;;;;;;;;;;;;22.09;79.65;102473.16;7282688;19;154101;-49
2021/08/25 04:47:46;;;;;;;;;;;;;;;22.10;80.01;102460.78;7281925;19;151761;-49
2021/08/25 04:50:14;;;;;;;;;;;;;;;22.09;79.94;102450.63;7282377;19;153391;-49
2021/08/25 04:52:41;;;;;;;;;;;;;;;22.09;80.03;102459.06;7282492;19;153551;-50
2021/08/25 04:55:08;;;;;;;;;;;;;;;22.09;79.82;102448.66;7289183;19;152071;-49
2021/08/25 04:57:35;;;;;;;;;;;;;;;22.09;79.67;102451.47;7281953;19;153973;-49
2021/08/25 05:00:03;;;;;;;;;;;;;;;22.08;79.82;102451.75;7282322;19;152970;-49
2021/08/25 05:02:30;;;;;;;;;;;;;;;22.09;79.94;102464.72;7282734;19;152072;-50
2021/08/25 05:04:57;;;;;;;;;;;;;;;22.08;80.03;102452.59;7281424;19;154190;-49
2021/08/25 05:07:24;;;;;;;;;;;;;;;22.08;79.87;102451.75;7280552;19;151791;-49
2021/08/25 05:09:51;;;;;;;;;;;;;;;22.07;79.83;102450.94;7283057;19;152715;-49
2021/08/25 05:12:19;;;;;;;;;;;;;;;22.07;79.97;102452.91;7280793;19;154885;-49
2021/08/25 05:14:46;;;;;;;;;;;;;;;22.06;79.85;102452.06;7280191;19;151722;-49
2021/08/25 05:17:13;;;;;;;;;;;;;;;22.06;79.89;102454.03;7288747;19;152238;-49
2021/08/25 05:19:40;;;;;;;;;;;;;;;22.08;80.27;102448.94;7281231;19;152366;-49
2021/08/25 05:22:09;;;;;;;;;;;;;;;22.06;79.85;102442.75;7281504;19;151620;-48
2021/08/25 05:24:36;;;;;;;;;;;;;;;22.06;79.83;102448.41;7274408;19;153252;-49
2021/08/25 05:27:03;;;;;;;;;;;;;;;22.05;79.93;102447.53;7283556;19;151700;-49
2021/08/25 05:29:31;;;;;;;;;;;;;;;22.05;80.33;102456.00;7278760;19;152823;-49
2021/08/25 05:31:58;;;;;;;;;;;;;;;22.05;80.29;102458.81;7280924;19;154169;-49
2021/08/25 05:34:25;;;;;;;;;;;;;;;22.05;79.98;102458.81;7283109;19;153247;-49
2021/08/25 05:36:52;;;;;;;;;;;;;;;22.05;79.73;102458.81;7283515;19;152743;-49
2021/08/25 05:39:19;;;;;;;;;;;;;;;22.07;80.02;102466.97;7286132;19;152937;-49
2021/08/25 05:41:46;;;;;;;;;;;;;;;22.07;80.12;102469.78;7278936;19;153457;-48
2021/08/25 05:44:13;;;;;;;;;;;;;;;22.07;79.80;102464.16;7278539;19;152763;-49
2021/08/25 05:46:40;;;;;;;;;;;;;;;22.06;79.91;102468.94;7279413;19;153580;-49
2021/08/25 05:49:08;;;;;;;;;;;;;;;22.06;79.88;102466.13;7283323;19;153667;-49
2021/08/25 05:51:35;;;;;;;;;;;;;;;22.06;79.93;102471.75;7276447;19;152439;-48
2021/08/25 05:54:02;;;;;;;;;;;;;;;22.06;79.75;102473.72;7280531;19;152520;-49
2021/08/25 05:56:29;;;;;;;;;;;;;;;22.07;79.76;102469.78;7279938;19;152664;-49
2021/08/25 05:58:56;;;;;;;;;;;;;;;22.06;79.97;102482.19;7279732;19;152810;-49
2021/08/25 06:01:25;;;;;;;;;;;;;;;22.06;79.44;102468.09;7289530;19;151745;-49
2021/08/25 06:03:52;;;;;;;;;;;;;;;22.06;79.71;102474.56;7278213;19;153316;-49
2021/08/25 06:06:19;;;;;;;;;;;;;;;22.07;79.51;102472.63;7282737;19;151957;-49
2021/08/25 06:08:47;;;;;;;;;;;;;;;22.06;79.42;102477.41;7279716;19;153842;-49
2021/08/25 06:11:14;;;;;;;;;;;;;;;22.05;79.85;102464.44;7280811;19;154336;-50
2021/08/25 06:13:41;;;;;;;;;;;;;;;22.05;79.45;102466.41;7277311;19;153760;-49
2021/08/25 06:16:08;;;;;;;;;;;;;;;22.04;79.38;102474.00;7284260;19;152210;-48
2021/08/25 06:18:35;;;;;;;;;;;;;;;22.05;79.62;102469.22;7284172;19;153320;-49
2021/08/25 06:21:03;;;;;;;;;;;;;;;22.04;79.58;102479.63;7288034;19;152147;-48
2021/08/25 06:23:30;;;;;;;;;;;;;;;22.05;79.46;102486.09;7293314;19;152952;-49
2021/08/25 06:25:57;;;;;;;;;;;;;;;22.04;79.56;102478.78;7283720;19;152248;-49
2021/08/25 06:28:24;;;;;;;;;;;;;;;22.03;79.26;102482.75;7287201;19;151798;-49
2021/08/25 06:30:51;;;;;;;;;;;;;;;22.04;79.58;102476.81;7286946;19;152214;-49
2021/08/25 06:33:18;;;;;;;;;;;;;;;22.03;79.25;102489.19;7286308;19;152100;-49
2021/08/25 06:35:45;;;;;;;;;;;;;;;22.01;79.68;102480.19;7286266;19;152167;-49
2021/08/25 06:38:13;;;;;;;;;;;;;;;22.04;79.72;102487.22;7286291;19;153200;-49
2021/08/25 06:40:40;;;;;;;;;;;;;;;22.01;79.36;102485.84;7288669;19;151726;-49
2021/08/25 06:43:07;;;;;;;;;;;;;;;22.03;79.42;102477.13;7285560;19;153479;-49
2021/08/25 06:45:34;;;;;;;;;;;;;;;22.03;79.31;102480.75;7291615;19;152095;-49
2021/08/25 06:48:01;;;;;;;;;;;;;;;22.04;79.67;102481.59;7284073;19;151802;-50
2021/08/25 06:50:28;;;;;;;;;;;;;;;22.03;79.56;102483.56;7283932;19;153633;-48
2021/08/25 06:52:55;;;;;;;;;;;;;;;22.04;79.59;102476.81;7284530;19;152258;-49
2021/08/25 06:55:23;;;;;;;;;;;;;;;22.04;79.93;102481.59;7288962;19;153276;-49
2021/08/25 06:57:50;;;;;;;;;;;;;;;22.05;79.57;102477.66;7280931;19;154095;-49
2021/08/25 07:00:18;;;;;;;;;;;;;;;22.03;79.76;102475.13;7288433;19;152010;-49
2021/08/25 07:02:45;;;;;;;;;;;;;;;22.05;79.87;102474.84;7288323;19;152809;-50
2021/08/25 07:05:13;;;;;;;;;;;;;;;22.04;79.90;102476.81;7290260;19;154362;-49
2021/08/25 07:07:51;;;;;;;;;;;;;;;22.05;79.67;102474.84;7283821;19;153409;-49
2021/08/25 07:10:18;;;;;;;;;;;;;;;22.04;79.95;102479.63;7284851;19;154061;-49
2021/08/25 07:12:46;;;;;;;;;;;;;;;22.05;79.68;102472.03;7286516;19;151667;-49
2021/08/25 07:15:16;;;;;;;;;;;;;;;22.06;79.72;102482.19;7286054;19;153671;-49
2021/08/25 07:17:44;;;;;;;;;;;;;;;22.05;79.84;102477.66;7283465;19;153113;-49
2021/08/25 07:20:13;;;;;;;;;;;;;;;22.04;79.77;102475.97;7284954;19;151904;-48
2021/08/25 07:22:41;;;;;;;;;;;;;;;22.03;79.52;102482.75;7282730;19;152293;-49
2021/08/25 07:25:08;;;;;;;;;;;;;;;22.04;79.73;102479.63;7281689;19;154221;-49
2021/08/25 07:27:39;;;;;;;;;;;;;;;22.03;79.52;102486.38;7289638;19;151843;-49
2021/08/25 07:30:07;;;;;;;;;;;;;;;22.04;79.79;102492.84;7284290;19;153742;-49
2021/08/25 07:32:34;;;;;;;;;;;;;;;22.03;79.52;102489.19;7286475;19;152449;-49
2021/08/25 07:35:02;;;;;;;;;;;;;;;22.03;79.68;102488.38;7286138;19;153423;-49
2021/08/25 07:37:29;;;;;;;;;;;;;;;22.03;79.78;102491.19;7283926;19;153444;-49
2021/08/25 07:39:56;;;;;;;;;;;;;;;22.01;79.62;102483.00;7287656;19;152045;-49
2021/08/25 07:42:23;;;;;;;;;;;;;;;22.03;79.79;102488.38;7283958;19;152620;-49
2021/08/25 07:44:51;;;;;;;;;;;;;;;22.04;79.48;102492.84;7283228;19;152946;-49
2021/08/25 07:47:18;;;;;;;;;;;;;;;22.02;79.43;102484.72;7285262;19;152128;-49
2021/08/25 07:49:45;;;;;;;;;;;;;;;22.03;79.71;102480.75;7290136;19;152682;-49
2021/08/25 07:52:12;;;;;;;;;;;;;;;22.07;79.67;102486.69;7285071;19;151781;-49
2021/08/25 07:54:39;;;;;;;;;;;;;;;22.08;79.63;102482.72;7283248;19;153471;-48
2021/08/25 07:57:06;;;;;;;;;;;;;;;22.06;79.59;102485.00;7282451;19;152945;-48
2021/08/25 07:59:33;;;;;;;;;;;;;;;21.98;77.26;102486.41;7279794;19;154255;-49
2021/08/25 08:02:01;;;;;;;;;;;;;;;21.91;75.04;102488.59;7285998;19;153475;-49
2021/08/25 08:04:28;;;;;;;;;;;;;;;21.85;73.67;102486.09;7281940;19;154551;-49
2021/08/25 08:07:00;;;;;;;;;;;;;;;21.76;73.06;102484.94;7286593;19;151834;-49
2021/08/25 08:09:27;;;;;;;;;;;;;;;21.69;72.72;102482.38;7284097;19;152728;-49
2021/08/25 08:11:55;;;;;;;;;;;;;;;21.71;72.44;102480.97;7292611;19;154004;-49
2021/08/25 08:14:22;;;;;;;;;;;;;;;21.69;72.64;102483.25;7284201;19;152788;-49
2021/08/25 08:16:52;;;;;;;;;;;;;;;21.63;72.12;102478.72;7284611;19;153140;-48
2021/08/25 08:19:29;;;;;;;;;;;;;;;21.65;71.74;102481.25;7285019;19;151964;-49
2021/08/25 08:21:57;;;;;;;;;;;;;;;21.59;71.94;102480.41;7286841;19;152896;-49
2021/08/25 08:24:25;;;;;;;;;;;;;;;21.56;71.76;102486.59;7282183;19;152861;-49
2021/08/25 08:26:53;;;;;;;;;;;;;;;21.51;71.22;102485.72;7281552;19;152047;-49
2021/08/25 08:29:22;;;;;;;;;;;;;;;21.53;71.41;102484.31;7281781;19;155126;-49
2021/08/25 08:31:51;;;;;;;;;;;;;;;21.50;71.70;102484.03;7284738;19;154502;-49
2021/08/25 08:34:18;;;;;;;;;;;;;;;21.52;71.39;102488.28;7291631;19;151965;-48
2021/08/25 08:36:46;;;;;;;;;;;;;;;21.48;70.84;102486.28;7280505;19;154118;-49
2021/08/25 08:39:14;;;;;;;;;;;;;;;21.43;70.94;102489.09;7278983;19;152854;-49
2021/08/25 08:41:41;;;;;;;;;;;;;;;21.40;71.14;102484.84;7281782;19;152327;-48
2021/08/25 08:44:17;;;;;;;;;;;;;;;21.34;71.17;102488.78;7279954;19;152249;-49
2021/08/25 08:46:47;;;;;;;;;;;;;;;21.36;71.35;102488.50;7284181;19;154783;-48
2021/08/25 08:49:14;;;;;;;;;;;;;;;21.31;71.35;102489.31;7281721;19;151754;-49
2021/08/25 08:51:42;;;;;;;;;;;;;;;21.43;72.04;102489.09;7278586;19;153522;-49
2021/08/25 08:54:10;;;;;;;;;;;;;;;21.45;70.85;102489.63;7286187;19;152491;-49
2021/08/25 08:56:38;;;;;;;;;;;;;;;21.45;70.57;102490.50;7284140;19;153448;-49
2021/08/25 08:59:12;;;;;;;;;;;;;;;21.45;70.31;102484.00;7281561;19;153433;-49
2021/08/25 09:01:39;;;;;;;;;;;;;;;21.46;70.26;102495.00;7284855;19;153800;-49
2021/08/25 09:04:27;;;;;;;;;;;;;;;21.48;70.39;102494.72;7279869;19;153657;-49
2021/08/25 09:06:54;;;;;;;;;;;;;;;21.44;70.37;102488.78;7279491;19;151696;-49
2021/08/25 09:09:21;;;;;;;;;;;;;;;21.49;70.30;102485.16;7282830;19;152947;-48
2021/08/25 09:11:49;;;;;;;;;;;;;;;21.46;70.37;102492.19;7281493;19;154430;-49
2021/08/25 09:14:16;;;;;;;;;;;;;;;21.42;70.26;102493.88;7284028;19;152519;-49
2021/08/25 09:16:44;;;;;;;;;;;;;;;21.42;70.11;102491.06;7283686;19;152659;-49
2021/08/25 09:19:13;;;;;;;;;;;;;;;21.45;69.97;102481.22;7281101;19;151872;-49
2021/08/25 09:21:49;;;;;;;;;;;;;;;21.43;69.94;102481.50;7264339;19;152694;-49
2021/08/25 09:24:26;;;;;;;;;;;;;;;21.42;70.08;102485.44;7276542;19;153873;-48
2021/08/25 09:27:01;;;;;;;;;;;;;;;21.40;69.80;102490.47;7281403;19;151883;-49
2021/08/25 09:29:58;;;;;;;;;;;;;;;21.42;70.32;102488.25;7277103;19;152848;-49
2021/08/25 09:32:26;;;;;;;;;;;;;;;21.43;70.18;102480.66;7278234;19;152362;-49
2021/08/25 09:34:55;;;;;;;;;;;;;;;21.42;69.58;102477.00;7277680;19;151976;-49
2021/08/25 09:37:28;;;;;;;;;;;;;;;21.39;70.13;102477.56;7281021;19;152262;-49
2021/08/25 09:40:17;;;;;;;;;;;;;;;21.41;70.21;102475.31;7286998;19;152523;-49
2021/08/25 09:42:47;;;;;;;;;;;;;;;21.38;69.93;102473.06;7279512;19;153674;-49
2021/08/25 09:45:16;;;;;;;;;;;;;;;21.39;70.01;102474.75;7279519;19;154297;-49
2021/08/25 09:47:47;;;;;;;;;;;;;;;21.36;70.07;102471.63;7282597;19;153001;-49
2021/08/25 09:50:16;;;;;;;;;;;;;;;21.37;70.19;102464.88;7281583;19;153540;-49
2021/08/25 09:52:44;;;;;;;;;;;;;;;21.37;69.85;102462.91;7282628;19;154938;-49
2021/08/25 09:55:16;;;;;;;;;;;;;;;21.37;70.14;102454.47;7287208;19;152348;-49
2021/08/25 09:57:45;;;;;;;;;;;;;;;21.37;70.43;102448.88;7284788;19;152901;-49
2021/08/25 10:00:26;;;;;;;;;;;;;;;21.35;69.78;102447.47;7287590;19;152709;-49
2021/08/25 10:03:18;;;;;;;;;;;;;;;21.36;69.57;102444.34;7291546;19;151748;-48
2021/08/25 10:06:21;;;;;;;;;;;;;;;21.37;69.77;102448.88;7286248;19;152115;-48
2021/08/25 10:09:00;;;;;;;;;;;;;;;21.36;69.94;102429.44;7285732;19;154126;-49
2021/08/25 10:11:44;;;;;;;;;;;;;;;21.37;70.34;102439.56;7288216;19;155258;-49
2021/08/25 10:14:30;;;;;;;;;;;;;;;21.37;70.25;102426.38;7284308;19;152665;-49
2021/08/25 10:17:01;;;;;;;;;;;;;;;21.42;69.77;102434.81;7288000;19;151760;-49
2021/08/25 10:19:40;;;;;;;;;;;;;;;21.42;70.04;102429.19;7288280;19;154140;-49
2021/08/25 10:22:12;;;;;;;;;;;;;;;21.44;70.26;102431.72;7286605;19;154120;-49
2021/08/25 10:24:49;;;;;;;;;;;;;;;21.44;70.04;102426.94;7284797;19;152181;-48
2021/08/25 10:27:19;;;;;;;;;;;;;;;21.45;70.38;102427.78;7293205;19;154378;-49
2021/08/25 10:29:50;;;;;;;;;;;;;;;21.47;70.64;102422.72;7289047;19;152438;-49
2021/08/25 10:32:17;;;;;;;;;;;;;;;21.47;70.12;102420.75;7286817;19;153673;-49
2021/08/25 10:35:05;;;;;;;;;;;;;;;21.47;70.38;102411.47;7286326;19;155164;-49
2021/08/25 10:37:40;;;;;;;;;;;;;;;21.47;69.57;102417.09;7285068;19;152081;-49
2021/08/25 10:40:19;;;;;;;;;;;;;;;21.50;70.25;102408.94;7286544;19;155644;-49
2021/08/25 10:43:01;;;;;;;;;;;;;;;21.51;69.88;102406.97;7283922;19;152180;-49
2021/08/25 10:45:40;;;;;;;;;;;;;;;21.51;70.32;102407.84;7285491;19;152074;-49
2021/08/25 10:48:10;;;;;;;;;;;;;;;21.51;70.35;102404.16;7287189;19;155032;-49
2021/08/25 10:50:48;;;;;;;;;;;;;;;21.58;69.93;102411.19;7293644;19;153632;-49
2021/08/25 10:53:42;;;;;;;;;;;;;;;21.58;70.32;102402.75;7284221;19;151804;-49
2021/08/25 10:56:51;;;;;;;;;;;;;;;21.61;70.46;102404.19;7284777;19;152835;-49
2021/08/25 10:59:50;;;;;;;;;;;;;;;21.62;70.37;102392.63;7283797;19;151728;-49
2021/08/25 11:02:56;;;;;;;;;;;;;;;21.63;70.00;102387.84;7284543;19;153716;-48
2021/08/25 11:06:21;;;;;;;;;;;;;;;21.66;69.82;102385.34;7279533;19;152221;-50
2021/08/25 11:12:33;;;;;;;;;;;;;;;21.78;70.05;102370.97;7288578;19;152097;-48
2021/08/25 11:15:32;;;;;;;;;;;;;;;21.85;70.29;102373.53;7290165;19;152528;-49
2021/08/25 11:18:05;;;;;;;;;;;;;;;21.90;70.29;102365.06;7284174;19;151974;-49
2021/08/25 11:20:41;;;;;;;;;;;;;;;21.92;70.31;102366.47;7282780;19;153168;-49
2021/08/25 11:23:11;;;;;;;;;;;;;;;21.92;70.52;102357.19;7279649;19;152907;-49
2021/08/25 11:25:50;;;;;;;;;;;;;;;21.90;70.52;102350.97;7282836;19;152492;-49
2021/08/25 11:28:19;;;;;;;;;;;;;;;21.98;70.67;102348.50;7286339;19;152894;-49
2021/08/25 11:30:46;;;;;;;;;;;;;;;22.03;70.22;102344.81;7283668;19;151870;-49
2021/08/25 11:33:15;;;;;;;;;;;;;;;22.04;70.70;102341.72;7284588;19;152860;-50
2021/08/25 11:35:44;;;;;;;;;;;;;;;22.04;70.45;102347.34;7285525;19;154284;-49
2021/08/25 11:38:15;;;;;;;;;;;;;;;22.09;70.80;102346.47;7293530;19;151927;-49
2021/08/25 11:40:43;;;;;;;;;;;;;;;22.07;70.88;102346.78;7284288;19;153522;-49
2021/08/25 11:43:12;;;;;;;;;;;;;;;22.06;70.93;102342.28;7285926;19;151743;-49
2021/08/25 11:45:41;;;;;;;;;;;;;;;22.07;70.76;102338.34;7283888;19;152720;-49
2021/08/25 11:48:10;;;;;;;;;;;;;;;22.06;70.89;102338.63;7280604;19;153274;-50
2021/08/25 11:50:40;;;;;;;;;;;;;;;22.12;70.95;102329.84;7285746;19;151904;-49
2021/08/25 11:53:10;;;;;;;;;;;;;;;22.10;70.74;102328.47;7280509;19;153679;-49
2021/08/25 11:55:37;;;;;;;;;;;;;;;22.07;70.84;102327.09;7285639;19;153611;-49
2021/08/25 11:58:19;;;;;;;;;;;;;;;22.06;71.28;102328.19;7284778;19;152147;-49
2021/08/25 12:00:46;;;;;;;;;;;;;;;22.08;71.26;102323.13;7290594;19;153323;-48
2021/08/25 12:03:15;;;;;;;;;;;;;;;22.11;71.26;102321.72;7282655;19;151733;-49
2021/08/25 12:05:48;;;;;;;;;;;;;;;22.14;71.23;102315.50;7282439;19;153308;-49
2021/08/25 12:08:15;;;;;;;;;;;;;;;22.17;71.07;102317.75;7282605;19;154063;-50
2021/08/25 12:10:49;;;;;;;;;;;;;;;22.21;71.21;102323.66;7281895;19;152472;-49
2021/08/25 12:13:30;;;;;;;;;;;;;;;22.21;70.99;102324.50;7278446;19;151978;-49
2021/08/25 12:15:57;;;;;;;;;;;;;;;22.23;71.40;102321.38;7283991;19;153725;-50
2021/08/25 12:18:26;;;;;;;;;;;;;;;22.23;71.34;102322.22;7283741;19;151865;-49
2021/08/25 12:20:57;;;;;;;;;;;;;;;22.24;70.94;102309.00;7283641;19;153153;-49
2021/08/25 12:23:28;;;;;;;;;;;;;;;22.26;71.24;102318.03;7290765;19;153966;-49
2021/08/25 12:25:56;;;;;;;;;;;;;;;22.25;71.42;102311.53;7284764;19;153117;-49
2021/08/25 12:28:26;;;;;;;;;;;;;;;22.29;71.26;102304.19;7283081;19;153983;-48
2021/08/25 12:30:53;;;;;;;;;;;;;;;22.27;71.39;102298.00;7284749;19;152347;-49
2021/08/25 12:33:23;;;;;;;;;;;;;;;22.29;71.19;102292.94;7284658;19;152415;-49
2021/08/25 12:35:53;;;;;;;;;;;;;;;22.29;70.92;102284.50;7273341;19;153372;-49
2021/08/25 12:38:30;;;;;;;;;;;;;;;22.30;71.00;102277.75;7270964;19;152005;-50
2021/08/25 12:40:57;;;;;;;;;;;;;;;22.31;71.05;102279.41;7284662;19;151692;-49
2021/08/25 12:43:24;;;;;;;;;;;;;;;22.34;70.89;102284.47;7280433;19;153250;-49
2021/08/25 12:45:56;;;;;;;;;;;;;;;22.33;71.31;102281.94;7289543;19;152405;-49